Time,TemperatureF,DewpointF,PressureIn,WindDirection,WindDirectionDegrees,WindSpeedMPH,WindSpeedGustMPH,Humidity,HourlyPrecipIn,Conditions,Clouds,dailyrainin,SoftwareType,DateUTC
2013-04-06 00:02:00,44.0,29.0,-100.00,WNW,290,8.0,10.0,53,0.00,,,-99.99,,2013-04-06 06:02:00,
2013-04-06 00:12:00,43.0,29.0,-100.00,NW,310,4.0,10.0,58,0.00,,,-99.99,,2013-04-06 06:12:00,
2013-04-06 00:22:00,42.0,29.0,-100.00,WNW,285,7.0,11.0,57,0.00,,,-99.99,,2013-04-06 06:22:00,
2013-04-06 00:32:00,45.0,28.0,-100.00,WNW,295,12.0,16.0,52,0.00,,,-99.99,,2013-04-06 06:32:00,
2013-04-06 00:42:00,45.0,28.0,-100.00,WNW,290,11.0,14.0,51,0.00,,,-99.99,,2013-04-06 06:42:00,
2013-04-06 00:52:00,45.0,27.0,-100.00,WNW,285,12.0,16.0,48,0.00,,,-99.99,,2013-04-06 06:52:00,
2013-04-06 01:03:00,45.0,28.0,-100.00,WNW,300,12.0,16.0,52,0.00,,,-99.99,,2013-04-06 07:03:00,
2013-04-06 01:12:00,45.0,27.0,-100.00,WNW,300,12.0,16.0,50,0.00,,,-99.99,,2013-04-06 07:12:00,
2013-04-06 01:22:00,44.0,27.0,-100.00,WNW,290,12.0,14.0,51,0.00,,,-99.99,,2013-04-06 07:22:00,
2013-04-06 01:33:00,46.0,27.0,-100.00,WNW,295,12.0,17.0,48,0.00,,,-99.99,,2013-04-06 07:33:00,
2013-04-06 01:43:00,45.0,28.0,-100.00,WNW,295,11.0,16.0,51,0.00,,,-99.99,,2013-04-06 07:43:00,
2013-04-06 01:52:00,47.0,27.0,-100.00,WNW,295,14.0,29.0,43,0.00,,,-99.99,,2013-04-06 07:52:00,
2013-04-06 02:02:00,47.0,27.0,-100.00,WNW,300,12.0,20.0,45,0.00,,,-99.99,,2013-04-06 08:02:00,
2013-04-06 02:12:00,46.0,28.0,-100.00,WNW,300,8.0,14.0,48,0.00,,,-99.99,,2013-04-06 08:12:00,
2013-04-06 02:22:00,46.0,27.0,-100.00,WNW,290,5.0,9.0,46,0.00,,,-99.99,,2013-04-06 08:22:00,
2013-04-06 02:32:00,45.0,27.0,-100.00,WNW,290,4.0,9.0,47,0.00,,,-99.99,,2013-04-06 08:32:00,
2013-04-06 02:42:00,46.0,27.0,-100.00,SW,235,6.0,9.0,47,0.00,,,-99.99,,2013-04-06 08:42:00,
2013-04-06 02:52:00,44.0,27.0,-100.00,WNW,290,2.0,9.0,53,0.00,,,-99.99,,2013-04-06 08:52:00,
2013-04-06 03:02:00,42.0,28.0,-100.00,West,280,2.0,7.0,56,0.00,,,-99.99,,2013-04-06 09:02:00,
2013-04-06 03:12:00,42.0,27.0,-100.00,NW,305,3.0,7.0,54,0.00,,,-99.99,,2013-04-06 09:12:00,
2013-04-06 03:22:00,42.0,27.0,-100.00,NW,310,2.0,4.0,56,0.00,,,-99.99,,2013-04-06 09:22:00,
2013-04-06 03:32:00,42.0,28.0,-100.00,WNW,295,0.0,4.0,57,0.00,,,-99.99,,2013-04-06 09:32:00,
2013-04-06 03:42:00,42.0,28.0,-100.00,WSW,245,4.0,6.0,57,0.00,,,-99.99,,2013-04-06 09:42:00,
2013-04-06 03:52:00,42.0,28.0,-100.00,NW,305,2.0,7.0,57,0.00,,,-99.99,,2013-04-06 09:52:00,
2013-04-06 04:03:00,42.0,29.0,-100.00,WNW,300,6.0,8.0,62,0.00,,,-99.99,,2013-04-06 10:03:00,
2013-04-06 04:13:00,42.0,29.0,-100.00,NNW,330,9.0,10.0,59,0.00,,,-99.99,,2013-04-06 10:13:00,
2013-04-06 04:22:00,44.0,28.0,-100.00,North,350,9.0,11.0,54,0.00,,,-99.99,,2013-04-06 10:22:00,
2013-04-06 04:33:00,44.0,29.0,-100.00,NNW,340,7.0,10.0,55,0.00,,,-99.99,,2013-04-06 10:33:00,
2013-04-06 04:42:00,43.0,30.0,-100.00,NNW,330,6.0,12.0,58,0.00,,,-99.99,,2013-04-06 10:42:00,
2013-04-06 04:52:00,44.0,29.0,-100.00,NNW,335,9.0,12.0,54,0.00,,,-99.99,,2013-04-06 10:52:00,
2013-04-06 05:02:00,44.0,30.0,-100.00,North,350,10.0,12.0,57,0.00,,,-99.99,,2013-04-06 11:02:00,
2013-04-06 05:12:00,44.0,30.0,-100.00,NNW,335,11.0,14.0,57,0.00,,,-99.99,,2013-04-06 11:12:00,
2013-04-06 05:22:00,43.0,30.0,-100.00,NNW,335,9.0,16.0,59,0.00,,,-99.99,,2013-04-06 11:22:00,
2013-04-06 05:33:00,43.0,30.0,-100.00,NNW,345,10.0,14.0,59,0.00,,,-99.99,,2013-04-06 11:33:00,
2013-04-06 05:43:00,43.0,31.0,-100.00,NNW,345,9.0,14.0,61,0.00,,,-99.99,,2013-04-06 11:43:00,
2013-04-06 05:52:00,42.0,30.0,-100.00,NNW,335,7.0,13.0,61,0.00,,,-99.99,,2013-04-06 11:52:00,
2013-04-06 06:02:00,42.0,30.0,-100.00,NW,325,4.0,9.0,61,0.00,,,-99.99,,2013-04-06 12:02:00,
2013-04-06 06:12:00,42.0,30.0,-100.00,WNW,285,5.0,9.0,62,0.00,,,-99.99,,2013-04-06 12:12:00,
2013-04-06 06:22:00,42.0,30.0,-100.00,West,260,6.0,6.0,62,0.00,,,-99.99,,2013-04-06 12:22:00,
2013-04-06 06:32:00,42.0,29.0,-100.00,WSW,250,2.0,6.0,60,0.00,,,-99.99,,2013-04-06 12:32:00,
2013-04-06 06:43:00,43.0,29.0,-100.00,SW,215,4.0,6.0,58,0.00,,,-99.99,,2013-04-06 12:43:00,
2013-04-06 06:52:00,42.0,29.0,-100.00,NNE,30,1.0,5.0,58,0.00,,,-99.99,,2013-04-06 12:52:00,
2013-04-06 07:02:00,42.0,29.0,-100.00,West,270,0.0,2.0,58,0.00,,,-99.99,,2013-04-06 13:02:00,
2013-04-06 07:12:00,42.0,29.0,-100.00,WSW,250,0.0,1.0,60,0.00,,,-99.99,,2013-04-06 13:12:00,
2013-04-06 07:23:00,41.0,29.0,-100.00,West,280,4.0,4.0,62,0.00,,,-99.99,,2013-04-06 13:23:00,
2013-04-06 07:32:00,40.0,29.0,-100.00,NW,305,3.0,4.0,64,0.00,,,-99.99,,2013-04-06 13:32:00,
2013-04-06 07:42:00,40.0,31.0,-100.00,West,275,3.0,4.0,70,0.00,,,-99.99,,2013-04-06 13:42:00,
2013-04-06 07:52:00,42.0,31.0,-100.00,West,280,2.0,3.0,63,0.00,,,-99.99,,2013-04-06 13:52:00,
2013-04-06 08:04:00,40.0,31.0,-100.00,NW,315,1.0,2.0,69,0.00,,,-99.99,,2013-04-06 14:04:00,
2013-04-06 08:12:00,40.0,32.0,-100.00,West,280,2.0,3.0,71,0.00,,,-99.99,,2013-04-06 14:12:00,
2013-04-06 08:22:00,42.0,32.0,-100.00,NW,305,2.0,4.0,66,0.00,,,-99.99,,2013-04-06 14:22:00,
2013-04-06 08:32:00,45.0,32.0,-100.00,NW,325,2.0,4.0,60,0.00,,,-99.99,,2013-04-06 14:32:00,
2013-04-06 08:42:00,46.0,30.0,-100.00,North,350,7.0,11.0,52,0.00,,,-99.99,,2013-04-06 14:42:00,
2013-04-06 08:52:00,46.0,30.0,-100.00,North,0,7.0,11.0,54,0.00,,,-99.99,,2013-04-06 14:52:00,
2013-04-06 09:02:00,46.0,31.0,-100.00,North,0,7.0,11.0,53,0.00,,,-99.99,,2013-04-06 15:02:00,
2013-04-06 09:12:00,46.0,30.0,-100.00,North,0,8.0,11.0,52,0.00,,,-99.99,,2013-04-06 15:12:00,
2013-04-06 09:22:00,47.0,30.0,-100.00,North,0,7.0,10.0,51,0.00,,,-99.99,,2013-04-06 15:22:00,
2013-04-06 09:33:00,47.0,31.0,-100.00,North,0,2.0,7.0,53,0.00,,,-99.99,,2013-04-06 15:33:00,
2013-04-06 09:43:00,47.0,30.0,-100.00,NNE,15,2.0,4.0,51,0.00,,,-99.99,,2013-04-06 15:43:00,
2013-04-06 09:52:00,48.0,30.0,-100.00,NE,50,4.0,6.0,49,0.00,,,-99.99,,2013-04-06 15:52:00,
2013-04-06 10:05:00,49.0,31.0,-100.00,NW,325,2.0,6.0,49,0.00,,,-99.99,,2013-04-06 16:05:00,
2013-04-06 10:17:00,49.0,29.0,-100.00,NE,55,4.0,7.0,46,0.00,,,-99.99,,2013-04-06 16:17:00,
2013-04-06 10:23:00,50.0,29.0,-100.00,East,90,1.0,7.0,43,0.00,,,-99.99,,2013-04-06 16:23:00,
2013-04-06 10:32:00,49.0,28.0,-100.00,ENE,65,4.0,9.0,43,0.00,,,-99.99,,2013-04-06 16:32:00,
2013-04-06 10:42:00,49.0,28.0,-100.00,NE,45,4.0,6.0,44,0.00,,,-99.99,,2013-04-06 16:42:00,
2013-04-06 10:52:00,48.0,27.0,-100.00,WNW,290,2.0,6.0,43,0.00,,,-99.99,,2013-04-06 16:52:00,
2013-04-06 11:02:00,49.0,28.0,-100.00,SSE,160,0.0,4.0,43,0.00,,,-99.99,,2013-04-06 17:02:00,
2013-04-06 11:12:00,50.0,28.0,-100.00,NE,40,1.0,3.0,42,0.00,,,-99.99,,2013-04-06 17:12:00,
2013-04-06 11:22:00,51.0,29.0,-100.00,ESE,115,3.0,6.0,42,0.00,,,-99.99,,2013-04-06 17:22:00,
2013-04-06 11:32:00,51.0,29.0,-100.00,SE,145,6.0,10.0,43,0.00,,,-99.99,,2013-04-06 17:32:00,
2013-04-06 11:42:00,49.0,29.0,-100.00,East,100,4.0,9.0,45,0.00,,,-99.99,,2013-04-06 17:42:00,
2013-04-06 11:52:00,49.0,28.0,-100.00,East,100,6.0,10.0,44,0.00,,,-99.99,,2013-04-06 17:52:00,
2013-04-06 12:03:00,51.0,29.0,-100.00,East,95,4.0,7.0,43,0.00,,,-99.99,,2013-04-06 18:03:00,
2013-04-06 12:12:00,50.0,29.0,-100.00,East,95,6.0,9.0,43,0.00,,,-99.99,,2013-04-06 18:12:00,
2013-04-06 12:23:00,51.0,30.0,-100.00,East,85,6.0,9.0,44,0.00,,,-99.99,,2013-04-06 18:23:00,
2013-04-06 12:32:00,51.0,29.0,-100.00,ESE,105,4.0,8.0,44,0.00,,,-99.99,,2013-04-06 18:32:00,
2013-04-06 12:42:00,52.0,28.0,-100.00,SE,130,2.0,6.0,40,0.00,,,-99.99,,2013-04-06 18:42:00,
2013-04-06 12:52:00,52.0,28.0,-100.00,ENE,75,2.0,4.0,39,0.00,,,-99.99,,2013-04-06 18:52:00,
2013-04-06 13:02:00,52.0,28.0,-100.00,North,10,3.0,5.0,39,0.00,,,-99.99,,2013-04-06 19:02:00,
2013-04-06 13:12:00,53.0,30.0,-100.00,North,355,4.0,6.0,41,0.00,,,-99.99,,2013-04-06 19:12:00,
2013-04-06 13:22:00,51.0,31.0,-100.00,NE,40,7.0,9.0,44,0.00,,,-99.99,,2013-04-06 19:22:00,
2013-04-06 13:32:00,53.0,32.0,-100.00,NE,50,4.0,9.0,44,0.00,,,-99.99,,2013-04-06 19:32:00,
2013-04-06 13:42:00,53.0,30.0,-100.00,ENE,75,7.0,10.0,42,0.00,,,-99.99,,2013-04-06 19:42:00,
2013-04-06 13:52:00,52.0,30.0,-100.00,NE,45,5.0,9.0,42,0.00,,,-99.99,,2013-04-06 19:52:00,
2013-04-06 14:02:00,52.0,30.0,-100.00,ESE,105,5.0,11.0,42,0.00,,,-99.99,,2013-04-06 20:02:00,
2013-04-06 14:12:00,52.0,29.0,-100.00,East,100,5.0,9.0,40,0.00,,,-99.99,,2013-04-06 20:12:00,
2013-04-06 14:22:00,53.0,30.0,-100.00,ENE,70,3.0,7.0,41,0.00,,,-99.99,,2013-04-06 20:22:00,
2013-04-06 14:32:00,53.0,30.0,-100.00,SE,130,1.0,6.0,41,0.00,,,-99.99,,2013-04-06 20:32:00,
2013-04-06 14:42:00,53.0,29.0,-100.00,NNE,20,2.0,7.0,39,0.00,,,-99.99,,2013-04-06 20:42:00,
2013-04-06 14:52:00,54.0,29.0,-100.00,WSW,240,1.0,6.0,38,0.00,,,-99.99,,2013-04-06 20:52:00,
2013-04-06 15:02:00,54.0,29.0,-100.00,WNW,290,4.0,5.0,38,0.00,,,-99.99,,2013-04-06 21:02:00,
2013-04-06 15:13:00,54.0,29.0,-100.00,NW,320,2.0,6.0,38,0.00,,,-99.99,,2013-04-06 21:13:00,
2013-04-06 15:22:00,54.0,30.0,-100.00,NNE,30,6.0,9.0,39,0.00,,,-99.99,,2013-04-06 21:22:00,
2013-04-06 15:33:00,54.0,30.0,-100.00,WNW,300,1.0,7.0,38,0.00,,,-99.99,,2013-04-06 21:33:00,
2013-04-06 15:43:00,55.0,29.0,-100.00,North,10,2.0,7.0,37,0.00,,,-99.99,,2013-04-06 21:43:00,
2013-04-06 15:52:00,55.0,30.0,-100.00,NE,55,1.0,5.0,38,0.00,,,-99.99,,2013-04-06 21:52:00,
2013-04-06 16:03:00,54.0,30.0,-100.00,East,80,1.0,7.0,39,0.00,,,-99.99,,2013-04-06 22:03:00,
2013-04-06 16:13:00,55.0,29.0,-100.00,NNE,25,1.0,6.0,36,0.00,,,-99.99,,2013-04-06 22:13:00,
2013-04-06 16:23:00,56.0,29.0,-100.00,NNW,345,3.0,6.0,36,0.00,,,-99.99,,2013-04-06 22:23:00,
2013-04-06 16:34:00,56.0,30.0,-100.00,NW,320,3.0,5.0,36,0.00,,,-99.99,,2013-04-06 22:34:00,
2013-04-06 16:43:00,55.0,29.0,-100.00,North,0,1.0,4.0,36,0.00,,,-99.99,,2013-04-06 22:43:00,
2013-04-06 16:53:00,55.0,28.0,-100.00,North,350,4.0,6.0,35,0.00,,,-99.99,,2013-04-06 22:53:00,
2013-04-06 17:03:00,55.0,30.0,-100.00,NE,50,4.0,6.0,38,0.00,,,-99.99,,2013-04-06 23:03:00,
2013-04-06 17:13:00,54.0,30.0,-100.00,NNE,25,6.0,9.0,39,0.00,,,-99.99,,2013-04-06 23:13:00,
2013-04-06 17:23:00,56.0,31.0,-100.00,ENE,60,4.0,7.0,38,0.00,,,-99.99,,2013-04-06 23:23:00,
2013-04-06 17:34:00,56.0,29.0,-100.00,NE,35,1.0,6.0,36,0.00,,,-99.99,,2013-04-06 23:34:00,
2013-04-06 17:42:00,55.0,29.0,-100.00,North,0,6.0,9.0,36,0.00,,,-99.99,,2013-04-06 23:42:00,
2013-04-06 17:52:00,54.0,29.0,-100.00,North,0,8.0,12.0,38,0.00,,,-99.99,,2013-04-06 23:52:00,
2013-04-06 18:02:00,54.0,30.0,-100.00,North,355,6.0,16.0,39,0.00,,,-99.99,,2013-04-07 00:02:00,
2013-04-06 18:12:00,54.0,29.0,-100.00,NNW,335,7.0,11.0,38,0.00,,,-99.99,,2013-04-07 00:12:00,
2013-04-06 18:22:00,54.0,29.0,-100.00,NNW,335,6.0,8.0,37,0.00,,,-99.99,,2013-04-07 00:22:00,
2013-04-06 18:32:00,53.0,28.0,-100.00,NNW,330,4.0,6.0,37,0.00,,,-99.99,,2013-04-07 00:32:00,
2013-04-06 18:42:00,53.0,29.0,-100.00,WNW,300,5.0,6.0,38,0.00,,,-99.99,,2013-04-07 00:42:00,
2013-04-06 18:52:00,53.0,31.0,-100.00,WNW,295,4.0,6.0,42,0.00,,,-99.99,,2013-04-07 00:52:00,
2013-04-06 19:02:00,52.0,31.0,-100.00,WSW,255,3.0,4.0,44,0.00,,,-99.99,,2013-04-07 01:02:00,
2013-04-06 19:12:00,52.0,33.0,-100.00,WNW,290,2.0,4.0,48,0.00,,,-99.99,,2013-04-07 01:12:00,
2013-04-06 19:22:00,51.0,31.0,-100.00,WNW,295,4.0,6.0,46,0.00,,,-99.99,,2013-04-07 01:22:00,
2013-04-06 19:32:00,50.0,32.0,-100.00,WSW,245,4.0,4.0,48,0.00,,,-99.99,,2013-04-07 01:32:00,
2013-04-06 19:42:00,49.0,34.0,-100.00,NW,305,6.0,6.0,55,0.00,,,-99.99,,2013-04-07 01:42:00,
2013-04-06 19:52:00,49.0,33.0,-100.00,WNW,285,6.0,7.0,55,0.00,,,-99.99,,2013-04-07 01:52:00,
2013-04-06 20:03:00,47.0,33.0,-100.00,WNW,300,7.0,9.0,58,0.00,,,-99.99,,2013-04-07 02:03:00,
2013-04-06 20:12:00,48.0,32.0,-100.00,WNW,285,7.0,9.0,53,0.00,,,-99.99,,2013-04-07 02:12:00,
2013-04-06 20:23:00,45.0,33.0,-100.00,WNW,295,9.0,11.0,61,0.00,,,-99.99,,2013-04-07 02:23:00,
2013-04-06 20:32:00,44.0,33.0,-100.00,WNW,300,9.0,11.0,62,0.00,,,-99.99,,2013-04-07 02:32:00,
2013-04-06 20:42:00,46.0,31.0,-100.00,WNW,300,8.0,9.0,56,0.00,,,-99.99,,2013-04-07 02:42:00,
2013-04-06 20:52:00,46.0,31.0,-100.00,WNW,290,6.0,9.0,55,0.00,,,-99.99,,2013-04-07 02:52:00,
2013-04-06 21:02:00,46.0,32.0,-100.00,South,170,0.0,5.0,55,0.00,,,-99.99,,2013-04-07 03:02:00,
2013-04-06 21:12:00,47.0,31.0,-100.00,SW,225,0.0,2.0,54,0.00,,,-99.99,,2013-04-07 03:12:00,
2013-04-06 21:22:00,46.0,32.0,-100.00,NNW,335,2.0,2.0,57,0.00,,,-99.99,,2013-04-07 03:22:00,
2013-04-06 21:34:00,45.0,33.0,-100.00,SW,225,2.0,4.0,60,0.00,,,-99.99,,2013-04-07 03:34:00,
2013-04-06 21:43:00,46.0,33.0,-100.00,NW,310,2.0,4.0,60,0.00,,,-99.99,,2013-04-07 03:43:00,
2013-04-06 21:53:00,45.0,33.0,-100.00,SW,220,1.0,4.0,62,0.00,,,-99.99,,2013-04-07 03:53:00,
2013-04-06 22:03:00,45.0,33.0,-100.00,West,260,7.0,9.0,60,0.00,,,-99.99,,2013-04-07 04:03:00,
2013-04-06 22:13:00,46.0,32.0,-100.00,WNW,300,6.0,9.0,56,0.00,,,-99.99,,2013-04-07 04:13:00,
2013-04-06 22:23:00,47.0,31.0,-100.00,WNW,290,9.0,13.0,53,0.00,,,-99.99,,2013-04-07 04:23:00,
2013-04-06 22:32:00,48.0,32.0,-100.00,NNW,330,16.0,24.0,52,0.00,,,-99.99,,2013-04-07 04:32:00,
2013-04-06 22:43:00,47.0,34.0,-100.00,NNW,345,12.0,20.0,59,0.03,,,-99.99,,2013-04-07 04:43:00,
2013-04-06 22:52:00,48.0,33.0,-100.00,North,350,14.0,21.0,55,0.00,,,-99.99,,2013-04-07 04:52:00,
2013-04-06 23:02:00,47.0,34.0,-100.00,NNW,345,13.0,22.0,60,0.00,,,-99.99,,2013-04-07 05:02:00,
2013-04-06 23:12:00,46.0,34.0,-100.00,North,355,11.0,20.0,62,0.00,,,-99.99,,2013-04-07 05:12:00,
2013-04-06 23:22:00,45.0,34.0,-100.00,NW,325,11.0,17.0,64,0.00,,,-99.99,,2013-04-07 05:22:00,
2013-04-06 23:33:00,45.0,34.0,-100.00,NNW,330,12.0,17.0,66,0.00,,,-99.99,,2013-04-07 05:33:00,
2013-04-06 23:42:00,44.0,35.0,-100.00,NNW,330,11.0,19.0,69,0.00,,,-99.99,,2013-04-07 05:42:00,
2013-04-06 23:52:00,45.0,35.0,-100.00,NNW,330,20.0,28.0,67,0.00,,,-99.99,,2013-04-07 05:52:00,